Baldwin, Texas
Current Conditions -  °F | °C
As of 4:15 PM on Thursday 23 Oct 2014 (Local Time) from KASL Reporting Station
Clear Clear  
Wind Chill: 73°   Ceiling: Unl
Heat Index: 73°   Visibility: 10mi
Dew Point: 47°   Wind: 5mph
Humidity: 39%   Direction: 60°ENE
Pressure: 30.13"   Gusts: NA
Location:  32.6187°N, 94.1782°W
Report Text: KASL 232115Z AUTO 06004KT 10SM CLR 23/08 A3013 RMK AO1 T02300083
Loading
Personal Weather Stations






























Interactive Weather Map
Tropical Storm Tracking
New forecast layout! Learn more

10-Day Weather Forecast

Advertisements
Track Severe Weather on mobile